createdAt,value
2023-01-19T00:02:55.142Z,5.64
2023-01-19T00:05:57.828Z,5.61
2023-01-19T00:09:00.203Z,5.39
2023-01-19T00:12:02.888Z,5.60
2023-01-19T00:15:06.090Z,5.59
2023-01-19T00:18:10.631Z,5.60
2023-01-19T00:21:16.941Z,5.40
2023-01-19T00:24:19.680Z,5.57
2023-01-19T00:27:22.105Z,5.48
2023-01-19T00:30:24.915Z,5.45
2023-01-19T00:33:27.296Z,5.46
2023-01-19T00:36:30.026Z,5.46
2023-01-19T00:39:32.347Z,5.42
2023-01-19T00:42:40.745Z,5.22
2023-01-19T00:45:43.203Z,5.20
2023-01-19T00:48:45.845Z,5.43
2023-01-19T00:51:48.160Z,5.48
2023-01-19T00:54:51.024Z,5.33
2023-01-19T00:57:53.320Z,5.33
2023-01-19T01:00:57.496Z,5.24
2023-01-19T01:03:59.958Z,5.19
2023-01-19T01:07:02.822Z,5.18
2023-01-19T01:10:05.515Z,4.98
2023-01-19T01:13:19.899Z,5.21
2023-01-19T01:16:25.018Z,5.19
2023-01-19T01:19:27.682Z,5.17
2023-01-19T01:22:30.728Z,5.12
2023-01-19T01:25:37.448Z,5.14
2023-01-19T01:28:39.812Z,4.92
2023-01-19T01:31:42.436Z,5.14
2023-01-19T01:34:44.796Z,4.90
2023-01-19T01:37:47.506Z,5.07
2023-01-19T01:40:50.171Z,4.80
2023-01-19T01:43:58.283Z,4.95
2023-01-19T01:47:01.285Z,4.96
2023-01-19T01:50:27.970Z,4.81
2023-01-19T01:53:32.968Z,5.02
2023-01-19T01:56:59.533Z,4.98
2023-01-19T02:00:03.646Z,4.95
2023-01-19T02:03:07.461Z,4.83
2023-01-19T02:06:10.526Z,5.04
2023-01-19T02:09:31.630Z,4.98
2023-01-19T02:12:53.160Z,5.01
2023-01-19T02:16:00.091Z,4.78
2023-01-19T02:19:04.067Z,4.95
2023-01-19T02:22:19.045Z,4.95
2023-01-19T02:25:22.082Z,4.91
2023-01-19T02:28:26.168Z,4.91
2023-01-19T02:31:31.282Z,4.93
2023-01-19T02:34:33.907Z,4.99
2023-01-19T02:37:40.190Z,4.88
2023-01-19T02:40:43.544Z,4.84
2023-01-19T02:43:49.234Z,4.93
2023-01-19T02:46:54.389Z,4.85
2023-01-19T02:49:57.932Z,4.85
2023-01-19T02:53:21.849Z,4.83
2023-01-19T02:56:30.143Z,4.70
2023-01-19T02:59:50.743Z,4.74
2023-01-19T03:03:16.404Z,4.80
2023-01-19T03:07:07.589Z,4.84
2023-01-19T03:10:24.186Z,4.67
2023-01-19T03:14:02.072Z,4.80
2023-01-19T03:17:08.080Z,4.82
2023-01-19T03:20:14.046Z,4.82
2023-01-19T03:23:18.538Z,4.81
2023-01-19T03:26:26.530Z,4.85
2023-01-19T03:29:34.870Z,4.61
2023-01-19T03:32:48.354Z,4.63
2023-01-19T03:35:56.960Z,4.78
2023-01-19T03:39:02.479Z,4.72
2023-01-19T03:42:08.485Z,4.49
2023-01-19T03:45:14.003Z,4.53
2023-01-19T03:48:17.309Z,4.45
2023-01-19T03:51:20.438Z,4.51
2023-01-19T03:54:23.479Z,4.40
2023-01-19T03:57:26.135Z,4.56
2023-01-19T04:00:29.105Z,4.29
2023-01-19T04:03:31.732Z,4.31
2023-01-19T04:06:34.087Z,4.44
2023-01-19T04:09:36.768Z,4.46
2023-01-19T04:12:40.130Z,4.33
2023-01-19T04:15:42.777Z,4.37
2023-01-19T04:18:45.259Z,4.18
2023-01-19T04:21:51.109Z,4.38
2023-01-19T04:24:53.535Z,4.42
2023-01-19T04:27:58.359Z,4.41
2023-01-19T04:31:01.321Z,4.34
2023-01-19T04:34:04.303Z,4.35
2023-01-19T04:37:08.540Z,4.29
2023-01-19T04:40:14.083Z,4.43
2023-01-19T04:43:17.016Z,4.17
2023-01-19T04:46:19.720Z,4.31
2023-01-19T04:49:22.059Z,4.26
2023-01-19T04:52:24.845Z,4.06
2023-01-19T04:55:27.145Z,4.11
2023-01-19T04:58:29.973Z,4.05
2023-01-19T05:01:32.709Z,4.01
2023-01-19T05:04:35.354Z,4.11
2023-01-19T05:07:38.301Z,4.04
2023-01-19T05:10:41.016Z,4.37
2023-01-19T05:13:43.307Z,4.19
2023-01-19T05:16:45.934Z,4.39
2023-01-19T05:19:49.013Z,4.35
2023-01-19T05:22:53.354Z,4.18
2023-01-19T05:25:56.839Z,4.40
2023-01-19T05:28:59.417Z,4.35
2023-01-19T05:32:02.000Z,4.29
2023-01-19T05:35:04.870Z,4.39
2023-01-19T05:38:07.157Z,4.30
2023-01-19T05:41:09.851Z,4.34
2023-01-19T05:44:12.787Z,4.36
2023-01-19T05:47:15.517Z,4.28
2023-01-19T05:50:17.965Z,4.48
2023-01-19T05:53:21.230Z,4.45
2023-01-19T05:56:23.571Z,4.45
2023-01-19T05:59:27.282Z,4.47
2023-01-19T06:02:30.272Z,4.46
2023-01-19T06:05:32.854Z,4.45
2023-01-19T06:08:35.233Z,4.57
2023-01-19T06:11:37.890Z,4.37
2023-01-19T06:14:40.909Z,4.54
2023-01-19T06:17:43.621Z,4.30
2023-01-19T06:20:45.946Z,4.27
2023-01-19T06:23:48.545Z,4.30
2023-01-19T06:26:51.127Z,4.34
2023-01-19T06:29:53.851Z,4.33
2023-01-19T06:32:56.228Z,4.16
2023-01-19T06:35:58.898Z,4.37
2023-01-19T06:39:05.574Z,4.40
2023-01-19T06:42:13.175Z,4.40
2023-01-19T06:45:17.031Z,4.35
2023-01-19T06:48:19.840Z,4.21
2023-01-19T06:51:23.934Z,4.47
2023-01-19T06:54:27.263Z,4.48
2023-01-19T06:57:29.648Z,4.26
2023-01-19T07:00:32.586Z,4.26
2023-01-19T07:03:36.780Z,4.43
2023-01-19T07:06:39.614Z,4.53
2023-01-19T07:09:41.895Z,4.52
2023-01-19T07:12:46.558Z,4.46
2023-01-19T07:15:49.079Z,4.32
2023-01-19T07:18:51.900Z,4.41
2023-01-19T07:21:54.230Z,4.49
2023-01-19T07:24:56.872Z,4.55
2023-01-19T07:28:00.214Z,4.53
2023-01-19T07:31:03.875Z,4.55
2023-01-19T07:34:07.033Z,4.63
2023-01-19T07:37:10.074Z,4.61
2023-01-19T07:40:12.691Z,4.41
2023-01-19T07:43:15.848Z,4.68
2023-01-19T07:46:18.380Z,4.67
2023-01-19T07:49:21.404Z,4.75
2023-01-19T07:52:23.844Z,4.84
2023-01-19T07:55:26.682Z,4.92
2023-01-19T07:58:29.116Z,4.82
2023-01-19T08:01:32.012Z,4.62
2023-01-19T08:04:34.856Z,4.71
2023-01-19T08:07:37.178Z,4.94
2023-01-19T08:10:39.807Z,4.76
2023-01-19T08:13:43.429Z,4.90
2023-01-19T08:16:46.065Z,4.69
2023-01-19T08:19:48.351Z,4.87
2023-01-19T08:22:51.000Z,4.93
2023-01-19T08:25:53.907Z,4.72
2023-01-19T08:28:58.938Z,4.78
2023-01-19T08:32:03.129Z,4.92
2023-01-19T08:35:06.613Z,4.99
2023-01-19T08:38:10.180Z,5.06
2023-01-19T08:41:12.874Z,4.88
2023-01-19T08:44:16.066Z,5.11
2023-01-19T08:47:18.777Z,5.06
2023-01-19T08:50:22.761Z,5.05
2023-01-19T08:53:25.591Z,5.07
2023-01-19T08:56:27.977Z,5.07
2023-01-19T08:59:30.728Z,4.86
2023-01-19T09:02:33.134Z,5.05
2023-01-19T09:05:39.002Z,4.98
2023-01-19T09:08:41.381Z,5.21
2023-01-19T09:11:44.064Z,5.24
2023-01-19T09:14:46.393Z,5.19
2023-01-19T09:17:49.089Z,5.20
2023-01-19T09:20:51.492Z,5.23
2023-01-19T09:23:55.064Z,5.08
2023-01-19T09:26:57.615Z,5.10
2023-01-19T09:30:00.255Z,4.99
2023-01-19T09:33:10.601Z,5.28
2023-01-19T09:36:13.202Z,5.20
2023-01-19T09:39:15.592Z,5.46
2023-01-19T09:42:31.289Z,5.30
2023-01-19T09:45:46.118Z,5.45
2023-01-19T09:48:52.996Z,5.47
2023-01-19T09:51:55.333Z,5.55
2023-01-19T09:54:59.029Z,5.33
2023-01-19T09:58:01.656Z,5.38
2023-01-19T10:01:27.595Z,5.37
2023-01-19T10:04:40.291Z,5.36
2023-01-19T10:07:53.483Z,5.26
2023-01-19T10:10:57.933Z,4.97
2023-01-19T10:14:00.655Z,4.82
2023-01-19T10:17:22.732Z,4.63
2023-01-19T10:21:05.399Z,4.61
2023-01-19T10:24:28.938Z,4.66
2023-01-19T10:27:34.282Z,4.38
2023-01-19T10:30:37.348Z,4.66
2023-01-19T10:33:39.940Z,4.52
2023-01-19T10:36:42.864Z,4.30
2023-01-19T10:40:11.272Z,4.29
2023-01-19T10:43:36.933Z,4.33
2023-01-19T10:46:50.411Z,4.28
2023-01-19T10:49:53.188Z,4.29
2023-01-19T10:53:00.284Z,4.06
2023-01-19T10:56:24.546Z,4.14
2023-01-19T10:59:33.024Z,4.15
2023-01-19T11:02:35.795Z,4.00
2023-01-19T11:05:38.603Z,3.85
2023-01-19T11:08:42.898Z,4.06
2023-01-19T11:11:51.009Z,3.91
2023-01-19T11:14:54.237Z,3.71
2023-01-19T11:17:56.908Z,3.95
2023-01-19T11:21:21.703Z,3.91
2023-01-19T11:24:24.211Z,3.84
2023-01-19T11:27:27.664Z,3.75
2023-01-19T11:30:30.707Z,3.69
2023-01-19T11:33:53.342Z,3.71
2023-01-19T11:37:04.591Z,3.87
2023-01-19T11:40:09.391Z,3.59
2023-01-19T11:43:13.702Z,3.84
2023-01-19T11:46:17.695Z,3.64
2023-01-19T11:49:31.314Z,3.99
2023-01-19T11:52:40.788Z,4.04
2023-01-19T11:55:51.376Z,4.21
2023-01-19T11:58:54.298Z,4.19
2023-01-19T12:02:00.716Z,4.12
2023-01-19T12:05:12.163Z,4.22
2023-01-19T12:08:19.181Z,4.14
2023-01-19T12:11:57.077Z,4.15
2023-01-19T12:15:22.548Z,4.14
2023-01-19T12:18:30.295Z,4.10
2023-01-19T12:21:32.630Z,4.06
2023-01-19T12:24:44.703Z,4.09
2023-01-19T12:27:48.987Z,4.21
2023-01-19T12:30:52.941Z,4.25
2023-01-19T12:33:55.526Z,4.27
2023-01-19T12:37:03.024Z,4.23
2023-01-19T12:40:26.127Z,4.23
2023-01-19T12:43:29.033Z,4.23
2023-01-19T12:46:32.171Z,4.27
2023-01-19T12:49:49.475Z,4.32
2023-01-19T12:52:58.727Z,4.16
2023-01-19T12:56:10.123Z,4.42
2023-01-19T12:59:25.451Z,4.26
2023-01-19T13:02:28.158Z,4.08
2023-01-19T13:05:32.536Z,4.15
2023-01-19T13:09:26.845Z,4.19
2023-01-19T13:12:29.536Z,4.24
2023-01-19T13:15:36.145Z,4.32
2023-01-19T13:18:41.749Z,4.29
2023-01-19T13:21:49.569Z,4.12
2023-01-19T13:25:07.973Z,4.29
2023-01-19T13:28:13.963Z,4.15
2023-01-19T13:31:17.198Z,4.17
2023-01-19T13:34:23.407Z,4.20
2023-01-19T13:37:38.955Z,4.28
2023-01-19T13:40:42.000Z,3.95
2023-01-19T13:43:45.027Z,3.94
2023-01-19T13:46:48.947Z,4.13
2023-01-19T13:49:56.832Z,4.19
2023-01-19T13:53:00.331Z,4.27
2023-01-19T13:56:23.313Z,4.21
2023-01-19T13:59:26.062Z,4.12
2023-01-19T14:02:28.710Z,4.15
2023-01-19T14:05:39.650Z,4.11
2023-01-19T14:08:41.997Z,3.79
2023-01-19T14:12:05.744Z,3.95
2023-01-19T14:15:17.030Z,4.00
2023-01-19T14:18:19.634Z,3.83
2023-01-19T14:21:22.093Z,4.02
2023-01-19T14:24:24.750Z,3.81
2023-01-19T14:27:27.183Z,3.98
2023-01-19T14:30:30.034Z,3.85
2023-01-19T14:33:36.609Z,3.78
2023-01-19T14:36:42.039Z,3.78
2023-01-19T14:39:56.054Z,3.73
2023-01-19T14:43:03.236Z,3.80
2023-01-19T14:46:05.628Z,3.67
2023-01-19T14:49:19.003Z,3.84
2023-01-19T14:52:38.835Z,3.82
2023-01-19T14:55:51.008Z,3.66
2023-01-19T14:58:54.968Z,3.23
2023-01-19T15:01:59.724Z,3.61
2023-01-19T15:05:02.204Z,3.69
2023-01-19T15:08:05.757Z,3.67
2023-01-19T15:11:32.210Z,3.46
2023-01-19T15:14:35.534Z,3.71
2023-01-19T15:17:37.940Z,3.71
2023-01-19T15:20:40.824Z,3.69
2023-01-19T15:23:43.343Z,3.30
2023-01-19T15:26:46.160Z,3.52
2023-01-19T15:29:48.499Z,3.57
2023-01-19T15:32:51.172Z,3.48
2023-01-19T15:35:54.904Z,3.54
2023-01-19T15:38:57.580Z,3.25
2023-01-19T15:42:01.048Z,3.18
2023-01-19T15:45:23.869Z,3.32
2023-01-19T15:48:26.205Z,3.05
2023-01-19T15:51:29.140Z,3.16
2023-01-19T15:54:31.458Z,3.23
2023-01-19T15:57:35.177Z,3.05
2023-01-19T16:00:37.505Z,3.18
2023-01-19T16:03:40.176Z,3.17
2023-01-19T16:06:45.130Z,3.18
2023-01-19T16:09:48.177Z,2.92
2023-01-19T16:12:50.621Z,3.06
2023-01-19T16:15:53.256Z,2.96
2023-01-19T16:18:56.936Z,2.90
2023-01-19T16:22:02.298Z,2.79
2023-01-19T16:25:05.426Z,2.71
2023-01-19T16:28:08.439Z,2.68
2023-01-19T16:31:10.879Z,3.01
2023-01-19T16:34:13.725Z,3.08
2023-01-19T16:37:16.060Z,2.74
2023-01-19T16:40:20.310Z,2.91
2023-01-19T16:43:22.651Z,3.14
2023-01-19T16:46:27.972Z,2.94
2023-01-19T16:49:30.450Z,3.25
2023-01-19T16:52:33.124Z,3.21
2023-01-19T16:55:40.658Z,3.37
2023-01-19T16:58:43.867Z,3.45
2023-01-19T17:01:46.380Z,3.12
2023-01-19T17:04:49.306Z,3.26
2023-01-19T17:07:51.764Z,3.13
2023-01-19T17:10:55.669Z,3.38
2023-01-19T17:14:00.525Z,3.48
2023-01-19T17:17:04.311Z,3.26
2023-01-19T17:20:07.263Z,3.38
2023-01-19T17:23:10.030Z,3.44
2023-01-19T17:26:12.426Z,3.46
2023-01-19T17:29:16.459Z,3.29
2023-01-19T17:32:18.783Z,3.16
2023-01-19T17:35:21.478Z,3.27
2023-01-19T17:38:23.728Z,3.03
2023-01-19T17:41:31.624Z,3.15
2023-01-19T17:44:34.107Z,3.13
2023-01-19T17:47:37.747Z,3.17
2023-01-19T17:50:40.136Z,3.10
2023-01-19T17:53:42.744Z,3.20
2023-01-19T17:56:45.115Z,3.14
2023-01-19T17:59:47.891Z,3.17
2023-01-19T18:02:51.273Z,3.19
2023-01-19T18:05:54.904Z,2.94
2023-01-19T18:08:58.940Z,2.98
2023-01-19T18:12:01.625Z,3.39
2023-01-19T18:15:05.754Z,3.27
2023-01-19T18:18:08.295Z,3.36
2023-01-19T18:21:12.932Z,3.15
2023-01-19T18:24:15.637Z,3.11
2023-01-19T18:27:17.975Z,2.97
2023-01-19T18:30:21.287Z,3.33
2023-01-19T18:33:24.142Z,2.98
2023-01-19T18:36:26.854Z,3.06
2023-01-19T18:39:32.116Z,3.13
2023-01-19T18:42:34.958Z,2.99
2023-01-19T18:45:38.322Z,3.03
2023-01-19T18:48:41.104Z,3.06
2023-01-19T18:51:43.468Z,3.01
2023-01-19T18:54:48.677Z,3.01
2023-01-19T18:57:51.591Z,2.81
2023-01-19T19:00:54.373Z,2.98
2023-01-19T19:03:57.626Z,2.84
2023-01-19T19:07:00.207Z,2.86
2023-01-19T19:10:02.798Z,2.88
2023-01-19T19:13:05.445Z,2.95
2023-01-19T19:16:09.330Z,2.87
2023-01-19T19:19:15.356Z,2.69
2023-01-19T19:22:17.691Z,2.93
2023-01-19T19:25:20.374Z,2.81
2023-01-19T19:28:22.704Z,2.68
2023-01-19T19:31:26.946Z,2.55
2023-01-19T19:34:30.165Z,2.77
2023-01-19T19:37:32.812Z,2.60
2023-01-19T19:40:35.237Z,2.93
2023-01-19T19:43:38.485Z,3.01
2023-01-19T19:46:43.880Z,2.73
2023-01-19T19:49:46.571Z,2.69
2023-01-19T19:52:49.026Z,2.52
2023-01-19T19:56:02.376Z,2.54
2023-01-19T19:59:04.728Z,2.76
2023-01-19T20:02:11.120Z,2.71
2023-01-19T20:05:13.746Z,2.78
2023-01-19T20:08:16.601Z,2.40
2023-01-19T20:11:22.371Z,2.64
2023-01-19T20:14:24.837Z,2.38
2023-01-19T20:17:27.561Z,2.58
2023-01-19T20:20:30.037Z,2.53
2023-01-19T20:23:33.641Z,2.51
2023-01-19T20:26:39.134Z,2.53
2023-01-19T20:29:41.734Z,2.23
2023-01-19T20:32:44.418Z,2.48
2023-01-19T20:35:47.631Z,2.33
2023-01-19T20:38:51.162Z,2.43
2023-01-19T20:41:53.968Z,2.55
2023-01-19T20:44:56.376Z,2.41
2023-01-19T20:47:59.043Z,2.23
2023-01-19T20:51:08.020Z,2.25
2023-01-19T20:54:12.740Z,2.50
2023-01-19T20:57:15.116Z,2.44
2023-01-19T21:00:18.090Z,2.45
2023-01-19T21:03:20.392Z,2.43
2023-01-19T21:06:23.273Z,2.20
2023-01-19T21:09:25.603Z,2.30
2023-01-19T21:12:28.285Z,2.26
2023-01-19T21:15:30.611Z,2.21
2023-01-19T21:18:33.426Z,2.32
2023-01-19T21:21:35.793Z,2.09
2023-01-19T21:24:38.428Z,2.30
2023-01-19T21:27:40.791Z,2.27
2023-01-19T21:30:43.530Z,2.34
2023-01-19T21:33:45.922Z,2.12
2023-01-19T21:36:48.663Z,2.33
2023-01-19T21:39:50.957Z,2.42
2023-01-19T21:42:53.600Z,2.38
2023-01-19T21:45:56.021Z,2.19
2023-01-19T21:49:04.688Z,2.19
2023-01-19T21:52:07.025Z,2.26
2023-01-19T21:55:09.829Z,2.42
2023-01-19T21:58:12.200Z,2.30
2023-01-19T22:01:15.688Z,2.36
2023-01-19T22:04:18.457Z,2.31
2023-01-19T22:07:20.784Z,2.35
2023-01-19T22:10:23.589Z,2.39
2023-01-19T22:13:28.087Z,2.59
2023-01-19T22:16:30.822Z,2.43
2023-01-19T22:19:33.210Z,2.60
2023-01-19T22:22:35.797Z,2.39
2023-01-19T22:25:38.173Z,2.26
2023-01-19T22:28:41.050Z,2.39
2023-01-19T22:31:43.463Z,2.49
2023-01-19T22:34:47.500Z,2.36
2023-01-19T22:37:49.869Z,2.63
2023-01-19T22:40:52.490Z,2.58
2023-01-19T22:43:57.416Z,2.31
2023-01-19T22:47:00.035Z,2.49
2023-01-19T22:50:02.319Z,2.59
2023-01-19T22:53:04.948Z,2.37
2023-01-19T22:56:19.357Z,2.24
2023-01-19T22:59:22.054Z,2.34
2023-01-19T23:02:24.421Z,2.31
2023-01-19T23:05:27.160Z,2.31
2023-01-19T23:08:29.473Z,2.33
2023-01-19T23:11:38.179Z,2.47
2023-01-19T23:14:40.567Z,2.34
2023-01-19T23:17:45.533Z,2.53
2023-01-19T23:20:47.910Z,2.45
2023-01-19T23:23:57.816Z,2.40
2023-01-19T23:27:02.242Z,2.34
2023-01-19T23:30:05.365Z,2.43
2023-01-19T23:33:07.900Z,2.48
2023-01-19T23:36:15.334Z,2.42
2023-01-19T23:39:20.687Z,2.58
2023-01-19T23:42:23.478Z,2.55
2023-01-19T23:45:25.793Z,2.53
2023-01-19T23:48:28.368Z,2.45
2023-01-19T23:51:32.225Z,2.40
2023-01-19T23:54:35.005Z,2.34
2023-01-19T23:57:37.327Z,2.25
